sensor_id;sensor_type;location;lat;lon;timestamp;P1;durP1;ratioP1;P2;durP2;ratioP2
76296;SDS011;65104;52.994;6.552;2023-12-20T00:01:17;4.00;;;1.02;;
76296;SDS011;65104;52.994;6.552;2023-12-20T00:03:42;3.90;;;0.82;;
76296;SDS011;65104;52.994;6.552;2023-12-20T00:06:08;3.80;;;0.95;;
76296;SDS011;65104;52.994;6.552;2023-12-20T00:08:34;1.63;;;0.60;;
76296;SDS011;65104;52.994;6.552;2023-12-20T00:10:59;5.88;;;1.08;;
76296;SDS011;65104;52.994;6.552;2023-12-20T00:13:24;4.38;;;1.17;;
76296;SDS011;65104;52.994;6.552;2023-12-20T00:15:50;5.10;;;0.80;;
76296;SDS011;65104;52.994;6.552;2023-12-20T00:18:15;4.80;;;1.65;;
76296;SDS011;65104;52.994;6.552;2023-12-20T00:20:40;8.73;;;1.13;;
76296;SDS011;65104;52.994;6.552;2023-12-20T00:23:06;3.40;;;0.82;;
76296;SDS011;65104;52.994;6.552;2023-12-20T00:25:32;5.88;;;1.30;;
76296;SDS011;65104;52.994;6.552;2023-12-20T00:27:58;4.90;;;0.90;;
76296;SDS011;65104;52.994;6.552;2023-12-20T00:30:23;3.42;;;1.23;;
76296;SDS011;65104;52.994;6.552;2023-12-20T00:32:49;10.80;;;1.70;;
76296;SDS011;65104;52.994;6.552;2023-12-20T00:35:15;5.82;;;1.10;;
76296;SDS011;65104;52.994;6.552;2023-12-20T00:37:41;2.47;;;1.35;;
76296;SDS011;65104;52.994;6.552;2023-12-20T00:40:08;3.20;;;0.68;;
76296;SDS011;65104;52.994;6.552;2023-12-20T00:42:34;4.22;;;0.90;;
76296;SDS011;65104;52.994;6.552;2023-12-20T00:45:00;3.08;;;0.85;;
76296;SDS011;65104;52.994;6.552;2023-12-20T00:47:25;6.00;;;1.00;;
76296;SDS011;65104;52.994;6.552;2023-12-20T00:49:51;6.53;;;0.88;;
76296;SDS011;65104;52.994;6.552;2023-12-20T00:52:17;3.38;;;0.80;;
76296;SDS011;65104;52.994;6.552;2023-12-20T00:54:43;3.53;;;1.15;;
76296;SDS011;65104;52.994;6.552;2023-12-20T00:57:09;8.18;;;1.42;;
76296;SDS011;65104;52.994;6.552;2023-12-20T00:59:35;3.60;;;0.82;;
76296;SDS011;65104;52.994;6.552;2023-12-20T01:02:00;7.68;;;1.73;;
76296;SDS011;65104;52.994;6.552;2023-12-20T01:04:26;4.22;;;1.02;;
76296;SDS011;65104;52.994;6.552;2023-12-20T01:06:51;7.83;;;1.00;;
76296;SDS011;65104;52.994;6.552;2023-12-20T01:09:18;7.28;;;1.00;;
76296;SDS011;65104;52.994;6.552;2023-12-20T01:11:43;7.53;;;0.98;;
76296;SDS011;65104;52.994;6.552;2023-12-20T01:14:11;10.25;;;1.65;;
76296;SDS011;65104;52.994;6.552;2023-12-20T01:16:37;4.88;;;0.95;;
76296;SDS011;65104;52.994;6.552;2023-12-20T01:19:02;7.75;;;1.15;;
76296;SDS011;65104;52.994;6.552;2023-12-20T01:21:27;4.40;;;1.35;;
76296;SDS011;65104;52.994;6.552;2023-12-20T01:23:53;2.88;;;0.73;;
76296;SDS011;65104;52.994;6.552;2023-12-20T01:26:18;5.00;;;0.90;;
76296;SDS011;65104;52.994;6.552;2023-12-20T01:28:43;5.45;;;1.25;;
76296;SDS011;65104;52.994;6.552;2023-12-20T01:31:09;15.00;;;1.10;;
76296;SDS011;65104;52.994;6.552;2023-12-20T01:33:34;4.07;;;1.90;;
76296;SDS011;65104;52.994;6.552;2023-12-20T01:35:59;15.80;;;1.38;;
76296;SDS011;65104;52.994;6.552;2023-12-20T01:38:25;10.27;;;1.50;;
76296;SDS011;65104;52.994;6.552;2023-12-20T01:40:50;6.07;;;0.88;;
76296;SDS011;65104;52.994;6.552;2023-12-20T01:43:16;5.50;;;1.08;;
76296;SDS011;65104;52.994;6.552;2023-12-20T01:45:41;3.97;;;0.90;;
76296;SDS011;65104;52.994;6.552;2023-12-20T01:48:07;3.22;;;1.20;;
76296;SDS011;65104;52.994;6.552;2023-12-20T01:50:34;2.42;;;1.30;;
76296;SDS011;65104;52.994;6.552;2023-12-20T01:53:02;5.15;;;1.20;;
76296;SDS011;65104;52.994;6.552;2023-12-20T01:55:31;8.63;;;1.40;;
76296;SDS011;65104;52.994;6.552;2023-12-20T01:57:58;6.13;;;1.70;;
76296;SDS011;65104;52.994;6.552;2023-12-20T02:00:24;4.60;;;1.13;;
76296;SDS011;65104;52.994;6.552;2023-12-20T02:02:53;4.82;;;1.02;;
76296;SDS011;65104;52.994;6.552;2023-12-20T02:05:20;2.58;;;1.08;;
76296;SDS011;65104;52.994;6.552;2023-12-20T02:07:46;6.30;;;1.73;;
76296;SDS011;65104;52.994;6.552;2023-12-20T02:10:11;9.18;;;2.10;;
76296;SDS011;65104;52.994;6.552;2023-12-20T02:12:37;3.80;;;0.93;;
76296;SDS011;65104;52.994;6.552;2023-12-20T02:15:03;9.55;;;1.30;;
76296;SDS011;65104;52.994;6.552;2023-12-20T02:17:29;3.58;;;0.98;;
76296;SDS011;65104;52.994;6.552;2023-12-20T02:19:55;7.50;;;1.42;;
76296;SDS011;65104;52.994;6.552;2023-12-20T02:22:20;7.00;;;1.95;;
76296;SDS011;65104;52.994;6.552;2023-12-20T02:24:46;4.80;;;1.07;;
76296;SDS011;65104;52.994;6.552;2023-12-20T02:27:11;9.35;;;1.20;;
76296;SDS011;65104;52.994;6.552;2023-12-20T02:29:37;12.57;;;1.88;;
76296;SDS011;65104;52.994;6.552;2023-12-20T02:32:02;5.65;;;1.10;;
76296;SDS011;65104;52.994;6.552;2023-12-20T02:34:28;5.50;;;2.00;;
76296;SDS011;65104;52.994;6.552;2023-12-20T02:36:54;6.10;;;1.67;;
76296;SDS011;65104;52.994;6.552;2023-12-20T02:39:20;6.60;;;1.75;;
76296;SDS011;65104;52.994;6.552;2023-12-20T02:41:47;12.38;;;1.75;;
76296;SDS011;65104;52.994;6.552;2023-12-20T02:44:13;11.27;;;2.15;;
76296;SDS011;65104;52.994;6.552;2023-12-20T02:46:38;6.85;;;2.03;;
76296;SDS011;65104;52.994;6.552;2023-12-20T02:49:04;6.97;;;1.55;;
76296;SDS011;65104;52.994;6.552;2023-12-20T02:51:29;10.18;;;1.90;;
76296;SDS011;65104;52.994;6.552;2023-12-20T02:53:55;4.10;;;0.77;;
76296;SDS011;65104;52.994;6.552;2023-12-20T02:56:20;4.13;;;0.90;;
76296;SDS011;65104;52.994;6.552;2023-12-20T02:58:46;8.27;;;1.48;;
76296;SDS011;65104;52.994;6.552;2023-12-20T03:01:11;6.13;;;1.40;;
76296;SDS011;65104;52.994;6.552;2023-12-20T03:03:36;7.28;;;1.40;;
76296;SDS011;65104;52.994;6.552;2023-12-20T03:06:02;5.18;;;0.90;;
76296;SDS011;65104;52.994;6.552;2023-12-20T03:08:27;6.80;;;1.45;;
76296;SDS011;65104;52.994;6.552;2023-12-20T03:10:52;5.60;;;1.50;;
76296;SDS011;65104;52.994;6.552;2023-12-20T03:13:18;8.98;;;1.35;;
76296;SDS011;65104;52.994;6.552;2023-12-20T03:15:44;13.25;;;1.58;;
76296;SDS011;65104;52.994;6.552;2023-12-20T03:18:09;8.90;;;1.95;;
76296;SDS011;65104;52.994;6.552;2023-12-20T03:20:35;5.45;;;1.88;;
76296;SDS011;65104;52.994;6.552;2023-12-20T03:23:00;9.07;;;1.33;;
76296;SDS011;65104;52.994;6.552;2023-12-20T03:25:26;10.63;;;1.88;;
76296;SDS011;65104;52.994;6.552;2023-12-20T03:27:52;8.13;;;2.28;;
76296;SDS011;65104;52.994;6.552;2023-12-20T03:30:17;4.20;;;1.40;;
76296;SDS011;65104;52.994;6.552;2023-12-20T03:32:43;10.45;;;2.00;;
76296;SDS011;65104;52.994;6.552;2023-12-20T03:35:08;11.13;;;2.17;;
76296;SDS011;65104;52.994;6.552;2023-12-20T03:37:34;8.50;;;2.58;;
76296;SDS011;65104;52.994;6.552;2023-12-20T03:40:00;7.95;;;1.98;;
76296;SDS011;65104;52.994;6.552;2023-12-20T03:42:25;15.05;;;1.63;;
76296;SDS011;65104;52.994;6.552;2023-12-20T03:44:50;8.93;;;1.88;;
76296;SDS011;65104;52.994;6.552;2023-12-20T03:47:19;6.80;;;1.73;;
76296;SDS011;65104;52.994;6.552;2023-12-20T03:49:44;11.43;;;2.25;;
76296;SDS011;65104;52.994;6.552;2023-12-20T03:52:09;8.05;;;1.60;;
76296;SDS011;65104;52.994;6.552;2023-12-20T03:54:35;8.37;;;1.20;;
76296;SDS011;65104;52.994;6.552;2023-12-20T03:57:00;7.45;;;1.58;;
76296;SDS011;65104;52.994;6.552;2023-12-20T03:59:26;6.40;;;1.30;;
76296;SDS011;65104;52.994;6.552;2023-12-20T04:01:51;7.05;;;1.63;;
76296;SDS011;65104;52.994;6.552;2023-12-20T04:04:17;13.98;;;2.63;;
76296;SDS011;65104;52.994;6.552;2023-12-20T04:06:42;5.97;;;2.55;;
76296;SDS011;65104;52.994;6.552;2023-12-20T04:09:08;8.93;;;1.67;;
76296;SDS011;65104;52.994;6.552;2023-12-20T04:11:36;9.70;;;2.22;;
76296;SDS011;65104;52.994;6.552;2023-12-20T04:14:02;7.75;;;1.75;;
76296;SDS011;65104;52.994;6.552;2023-12-20T04:16:27;6.63;;;1.98;;
76296;SDS011;65104;52.994;6.552;2023-12-20T04:18:53;9.00;;;1.90;;
76296;SDS011;65104;52.994;6.552;2023-12-20T04:21:18;8.68;;;1.98;;
76296;SDS011;65104;52.994;6.552;2023-12-20T04:23:43;7.25;;;1.30;;
76296;SDS011;65104;52.994;6.552;2023-12-20T04:26:09;9.30;;;2.08;;
76296;SDS011;65104;52.994;6.552;2023-12-20T04:28:34;6.15;;;1.55;;
76296;SDS011;65104;52.994;6.552;2023-12-20T04:30:59;10.65;;;2.20;;
76296;SDS011;65104;52.994;6.552;2023-12-20T04:33:25;8.27;;;1.88;;
76296;SDS011;65104;52.994;6.552;2023-12-20T04:35:50;11.68;;;1.73;;
76296;SDS011;65104;52.994;6.552;2023-12-20T04:38:16;16.20;;;2.15;;
76296;SDS011;65104;52.994;6.552;2023-12-20T04:40:42;11.45;;;2.15;;
76296;SDS011;65104;52.994;6.552;2023-12-20T04:43:07;8.10;;;1.90;;
76296;SDS011;65104;52.994;6.552;2023-12-20T04:45:34;6.60;;;1.95;;
76296;SDS011;65104;52.994;6.552;2023-12-20T04:47:59;9.57;;;2.03;;
76296;SDS011;65104;52.994;6.552;2023-12-20T04:50:26;6.72;;;1.45;;
76296;SDS011;65104;52.994;6.552;2023-12-20T04:52:51;9.38;;;1.60;;
76296;SDS011;65104;52.994;6.552;2023-12-20T04:55:17;13.68;;;2.45;;
76296;SDS011;65104;52.994;6.552;2023-12-20T04:57:42;12.63;;;2.08;;
76296;SDS011;65104;52.994;6.552;2023-12-20T05:00:08;9.85;;;1.48;;
76296;SDS011;65104;52.994;6.552;2023-12-20T05:02:34;14.50;;;1.77;;
76296;SDS011;65104;52.994;6.552;2023-12-20T05:05:02;8.85;;;1.75;;
76296;SDS011;65104;52.994;6.552;2023-12-20T05:07:28;8.57;;;1.92;;
76296;SDS011;65104;52.994;6.552;2023-12-20T05:09:53;21.40;;;2.50;;
76296;SDS011;65104;52.994;6.552;2023-12-20T05:12:18;8.13;;;1.90;;
76296;SDS011;65104;52.994;6.552;2023-12-20T05:14:44;8.35;;;2.33;;
76296;SDS011;65104;52.994;6.552;2023-12-20T05:17:09;5.90;;;1.77;;
76296;SDS011;65104;52.994;6.552;2023-12-20T05:19:34;5.30;;;1.70;;
76296;SDS011;65104;52.994;6.552;2023-12-20T05:22:00;13.75;;;2.08;;
76296;SDS011;65104;52.994;6.552;2023-12-20T05:24:27;8.32;;;2.05;;
76296;SDS011;65104;52.994;6.552;2023-12-20T05:26:52;9.52;;;1.83;;
76296;SDS011;65104;52.994;6.552;2023-12-20T05:29:18;6.35;;;2.17;;
76296;SDS011;65104;52.994;6.552;2023-12-20T05:31:43;13.98;;;2.03;;
76296;SDS011;65104;52.994;6.552;2023-12-20T05:34:08;9.27;;;1.83;;
76296;SDS011;65104;52.994;6.552;2023-12-20T05:36:34;6.82;;;1.48;;
76296;SDS011;65104;52.994;6.552;2023-12-20T05:39:00;14.35;;;3.15;;
76296;SDS011;65104;52.994;6.552;2023-12-20T05:41:25;5.18;;;1.30;;
76296;SDS011;65104;52.994;6.552;2023-12-20T05:43:50;9.90;;;1.88;;
76296;SDS011;65104;52.994;6.552;2023-12-20T05:46:16;8.90;;;1.98;;
76296;SDS011;65104;52.994;6.552;2023-12-20T05:48:41;8.93;;;1.55;;
76296;SDS011;65104;52.994;6.552;2023-12-20T05:51:06;14.98;;;2.10;;
76296;SDS011;65104;52.994;6.552;2023-12-20T05:53:32;4.55;;;1.27;;
76296;SDS011;65104;52.994;6.552;2023-12-20T05:55:58;5.82;;;1.38;;
76296;SDS011;65104;52.994;6.552;2023-12-20T05:58:23;9.90;;;1.70;;
76296;SDS011;65104;52.994;6.552;2023-12-20T06:00:49;5.35;;;1.35;;
76296;SDS011;65104;52.994;6.552;2023-12-20T06:03:14;14.55;;;2.00;;
76296;SDS011;65104;52.994;6.552;2023-12-20T06:05:40;9.32;;;1.92;;
76296;SDS011;65104;52.994;6.552;2023-12-20T06:08:05;10.38;;;2.03;;
76296;SDS011;65104;52.994;6.552;2023-12-20T06:10:31;6.18;;;1.48;;
76296;SDS011;65104;52.994;6.552;2023-12-20T06:12:56;3.75;;;1.65;;
76296;SDS011;65104;52.994;6.552;2023-12-20T06:15:23;6.38;;;1.48;;
76296;SDS011;65104;52.994;6.552;2023-12-20T06:17:49;6.15;;;1.40;;
76296;SDS011;65104;52.994;6.552;2023-12-20T06:20:15;7.90;;;1.63;;
76296;SDS011;65104;52.994;6.552;2023-12-20T06:22:40;6.60;;;1.48;;
76296;SDS011;65104;52.994;6.552;2023-12-20T06:25:05;9.95;;;2.35;;
76296;SDS011;65104;52.994;6.552;2023-12-20T06:27:32;3.05;;;1.25;;
76296;SDS011;65104;52.994;6.552;2023-12-20T06:29:57;8.75;;;1.95;;
76296;SDS011;65104;52.994;6.552;2023-12-20T06:32:23;17.40;;;2.45;;
76296;SDS011;65104;52.994;6.552;2023-12-20T06:34:49;13.00;;;1.90;;
76296;SDS011;65104;52.994;6.552;2023-12-20T06:37:14;8.95;;;2.47;;
76296;SDS011;65104;52.994;6.552;2023-12-20T06:39:40;10.30;;;2.08;;
76296;SDS011;65104;52.994;6.552;2023-12-20T06:42:05;2.60;;;1.42;;
76296;SDS011;65104;52.994;6.552;2023-12-20T06:44:31;5.60;;;1.45;;
76296;SDS011;65104;52.994;6.552;2023-12-20T06:46:56;9.85;;;2.40;;
76296;SDS011;65104;52.994;6.552;2023-12-20T06:49:22;4.28;;;1.20;;
76296;SDS011;65104;52.994;6.552;2023-12-20T06:51:48;12.95;;;1.75;;
76296;SDS011;65104;52.994;6.552;2023-12-20T06:54:13;10.95;;;3.15;;
76296;SDS011;65104;52.994;6.552;2023-12-20T06:56:38;12.60;;;1.40;;
76296;SDS011;65104;52.994;6.552;2023-12-20T06:59:04;8.32;;;3.28;;
76296;SDS011;65104;52.994;6.552;2023-12-20T07:01:29;8.35;;;2.38;;
76296;SDS011;65104;52.994;6.552;2023-12-20T07:03:54;6.72;;;1.95;;
76296;SDS011;65104;52.994;6.552;2023-12-20T07:06:20;9.13;;;2.10;;
76296;SDS011;65104;52.994;6.552;2023-12-20T07:08:45;9.32;;;1.63;;
76296;SDS011;65104;52.994;6.552;2023-12-20T07:11:11;2.92;;;1.15;;
76296;SDS011;65104;52.994;6.552;2023-12-20T07:13:37;9.85;;;1.90;;
76296;SDS011;65104;52.994;6.552;2023-12-20T07:16:02;10.63;;;3.28;;
76296;SDS011;65104;52.994;6.552;2023-12-20T07:18:28;7.50;;;1.48;;
76296;SDS011;65104;52.994;6.552;2023-12-20T07:20:54;7.85;;;1.92;;
76296;SDS011;65104;52.994;6.552;2023-12-20T07:23:20;6.90;;;2.08;;
76296;SDS011;65104;52.994;6.552;2023-12-20T07:25:46;9.63;;;1.65;;
76296;SDS011;65104;52.994;6.552;2023-12-20T07:28:11;8.63;;;1.70;;
76296;SDS011;65104;52.994;6.552;2023-12-20T07:30:37;5.97;;;1.73;;
76296;SDS011;65104;52.994;6.552;2023-12-20T07:33:02;8.85;;;2.33;;
76296;SDS011;65104;52.994;6.552;2023-12-20T07:35:28;10.93;;;2.13;;
76296;SDS011;65104;52.994;6.552;2023-12-20T07:37:53;3.83;;;1.63;;
76296;SDS011;65104;52.994;6.552;2023-12-20T07:40:19;9.63;;;2.03;;
76296;SDS011;65104;52.994;6.552;2023-12-20T07:42:44;7.82;;;2.05;;
76296;SDS011;65104;52.994;6.552;2023-12-20T07:45:10;3.58;;;1.33;;
76296;SDS011;65104;52.994;6.552;2023-12-20T07:47:36;4.00;;;1.33;;
76296;SDS011;65104;52.994;6.552;2023-12-20T07:50:02;8.52;;;2.70;;
76296;SDS011;65104;52.994;6.552;2023-12-20T07:52:28;9.57;;;1.90;;
76296;SDS011;65104;52.994;6.552;2023-12-20T07:54:55;5.32;;;2.20;;
76296;SDS011;65104;52.994;6.552;2023-12-20T07:57:20;10.88;;;1.65;;
76296;SDS011;65104;52.994;6.552;2023-12-20T07:59:46;8.95;;;1.45;;
76296;SDS011;65104;52.994;6.552;2023-12-20T08:02:11;10.43;;;2.83;;
76296;SDS011;65104;52.994;6.552;2023-12-20T08:04:37;10.30;;;2.58;;
76296;SDS011;65104;52.994;6.552;2023-12-20T08:07:03;6.00;;;1.48;;
76296;SDS011;65104;52.994;6.552;2023-12-20T08:09:28;8.13;;;3.15;;
76296;SDS011;65104;52.994;6.552;2023-12-20T08:11:54;4.05;;;1.58;;
76296;SDS011;65104;52.994;6.552;2023-12-20T08:14:20;9.45;;;2.20;;
76296;SDS011;65104;52.994;6.552;2023-12-20T08:16:45;13.68;;;1.85;;
76296;SDS011;65104;52.994;6.552;2023-12-20T08:19:10;8.15;;;1.83;;
76296;SDS011;65104;52.994;6.552;2023-12-20T08:21:36;10.98;;;1.85;;
76296;SDS011;65104;52.994;6.552;2023-12-20T08:24:01;7.60;;;1.55;;
76296;SDS011;65104;52.994;6.552;2023-12-20T08:26:27;9.68;;;1.95;;
76296;SDS011;65104;52.994;6.552;2023-12-20T08:28:52;4.75;;;1.33;;
76296;SDS011;65104;52.994;6.552;2023-12-20T08:31:18;5.88;;;2.00;;
76296;SDS011;65104;52.994;6.552;2023-12-20T08:33:44;3.13;;;0.95;;
76296;SDS011;65104;52.994;6.552;2023-12-20T08:36:10;4.10;;;1.25;;
76296;SDS011;65104;52.994;6.552;2023-12-20T08:38:36;1.85;;;0.77;;
76296;SDS011;65104;52.994;6.552;2023-12-20T08:41:01;6.88;;;1.48;;
76296;SDS011;65104;52.994;6.552;2023-12-20T08:43:30;8.82;;;1.75;;
76296;SDS011;65104;52.994;6.552;2023-12-20T08:45:55;4.55;;;0.98;;
76296;SDS011;65104;52.994;6.552;2023-12-20T08:48:21;6.47;;;1.45;;
76296;SDS011;65104;52.994;6.552;2023-12-20T08:50:46;6.63;;;1.75;;
76296;SDS011;65104;52.994;6.552;2023-12-20T08:53:13;6.15;;;1.00;;
76296;SDS011;65104;52.994;6.552;2023-12-20T08:55:40;4.88;;;1.88;;
76296;SDS011;65104;52.994;6.552;2023-12-20T08:58:06;6.47;;;1.73;;
76296;SDS011;65104;52.994;6.552;2023-12-20T09:00:33;6.85;;;1.38;;
76296;SDS011;65104;52.994;6.552;2023-12-20T09:02:59;6.78;;;1.83;;
76296;SDS011;65104;52.994;6.552;2023-12-20T09:05:24;8.05;;;1.50;;
76296;SDS011;65104;52.994;6.552;2023-12-20T09:07:50;9.32;;;1.90;;
76296;SDS011;65104;52.994;6.552;2023-12-20T09:10:15;15.57;;;2.33;;
76296;SDS011;65104;52.994;6.552;2023-12-20T09:12:41;7.78;;;1.77;;
76296;SDS011;65104;52.994;6.552;2023-12-20T09:15:07;7.05;;;1.48;;
76296;SDS011;65104;52.994;6.552;2023-12-20T09:17:33;5.47;;;1.92;;
76296;SDS011;65104;52.994;6.552;2023-12-20T09:19:58;5.22;;;1.75;;
76296;SDS011;65104;52.994;6.552;2023-12-20T09:22:25;16.17;;;2.63;;
76296;SDS011;65104;52.994;6.552;2023-12-20T09:24:50;11.00;;;2.00;;
76296;SDS011;65104;52.994;6.552;2023-12-20T09:27:16;14.35;;;2.10;;
76296;SDS011;65104;52.994;6.552;2023-12-20T09:29:41;12.82;;;2.42;;
76296;SDS011;65104;52.994;6.552;2023-12-20T09:32:06;6.03;;;1.15;;
76296;SDS011;65104;52.994;6.552;2023-12-20T09:34:33;2.00;;;0.75;;
76296;SDS011;65104;52.994;6.552;2023-12-20T09:36:58;4.63;;;1.30;;
76296;SDS011;65104;52.994;6.552;2023-12-20T09:39:23;3.97;;;0.47;;
76296;SDS011;65104;52.994;6.552;2023-12-20T09:41:51;4.85;;;0.55;;
76296;SDS011;65104;52.994;6.552;2023-12-20T09:44:19;1.95;;;0.38;;
76296;SDS011;65104;52.994;6.552;2023-12-20T09:46:45;1.45;;;0.55;;
76296;SDS011;65104;52.994;6.552;2023-12-20T09:49:14;2.63;;;0.52;;
76296;SDS011;65104;52.994;6.552;2023-12-20T09:51:42;1.73;;;0.30;;
76296;SDS011;65104;52.994;6.552;2023-12-20T09:54:08;3.20;;;0.55;;
76296;SDS011;65104;52.994;6.552;2023-12-20T09:56:34;2.63;;;0.30;;
76296;SDS011;65104;52.994;6.552;2023-12-20T09:59:00;3.63;;;0.52;;
76296;SDS011;65104;52.994;6.552;2023-12-20T10:01:25;2.55;;;0.52;;
76296;SDS011;65104;52.994;6.552;2023-12-20T10:03:54;1.48;;;0.60;;
76296;SDS011;65104;52.994;6.552;2023-12-20T10:06:19;0.95;;;0.40;;
76296;SDS011;65104;52.994;6.552;2023-12-20T10:08:46;5.40;;;0.90;;
76296;SDS011;65104;52.994;6.552;2023-12-20T10:11:11;2.70;;;0.65;;
76296;SDS011;65104;52.994;6.552;2023-12-20T10:13:40;7.30;;;1.08;;
76296;SDS011;65104;52.994;6.552;2023-12-20T10:16:06;1.60;;;0.93;;
76296;SDS011;65104;52.994;6.552;2023-12-20T10:18:34;1.25;;;0.45;;
76296;SDS011;65104;52.994;6.552;2023-12-20T10:21:01;3.40;;;0.65;;
76296;SDS011;65104;52.994;6.552;2023-12-20T10:23:26;1.88;;;0.52;;
76296;SDS011;65104;52.994;6.552;2023-12-20T10:25:58;6.00;;;0.75;;
76296;SDS011;65104;52.994;6.552;2023-12-20T10:28:23;1.92;;;0.47;;
76296;SDS011;65104;52.994;6.552;2023-12-20T10:30:53;3.55;;;0.80;;
76296;SDS011;65104;52.994;6.552;2023-12-20T10:33:28;4.85;;;0.88;;
76296;SDS011;65104;52.994;6.552;2023-12-20T10:35:54;2.78;;;0.85;;
76296;SDS011;65104;52.994;6.552;2023-12-20T10:38:20;8.57;;;1.02;;
76296;SDS011;65104;52.994;6.552;2023-12-20T10:40:46;2.40;;;0.60;;
76296;SDS011;65104;52.994;6.552;2023-12-20T10:43:11;6.05;;;0.95;;
76296;SDS011;65104;52.994;6.552;2023-12-20T10:45:38;1.95;;;0.50;;
76296;SDS011;65104;52.994;6.552;2023-12-20T10:48:03;7.50;;;0.77;;
76296;SDS011;65104;52.994;6.552;2023-12-20T10:50:30;3.75;;;0.57;;
76296;SDS011;65104;52.994;6.552;2023-12-20T10:52:56;1.38;;;0.52;;
76296;SDS011;65104;52.994;6.552;2023-12-20T10:55:23;2.83;;;0.40;;
76296;SDS011;65104;52.994;6.552;2023-12-20T10:57:52;3.25;;;0.52;;
76296;SDS011;65104;52.994;6.552;2023-12-20T11:00:24;2.83;;;0.63;;
76296;SDS011;65104;52.994;6.552;2023-12-20T11:02:50;3.28;;;0.60;;
76296;SDS011;65104;52.994;6.552;2023-12-20T11:05:22;2.88;;;0.75;;
76296;SDS011;65104;52.994;6.552;2023-12-20T11:14:07;2.83;;;0.50;;
76296;SDS011;65104;52.994;6.552;2023-12-20T11:16:19;2.72;;;0.77;;
76296;SDS011;65104;52.994;6.552;2023-12-20T11:18:44;4.65;;;0.90;;
76296;SDS011;65104;52.994;6.552;2023-12-20T11:21:10;6.18;;;0.57;;
76296;SDS011;65104;52.994;6.552;2023-12-20T11:23:36;4.97;;;0.70;;
76296;SDS011;65104;52.994;6.552;2023-12-20T11:26:02;3.45;;;0.43;;
76296;SDS011;65104;52.994;6.552;2023-12-20T11:28:28;3.67;;;0.60;;
76296;SDS011;65104;52.994;6.552;2023-12-20T11:30:56;5.55;;;1.00;;
76296;SDS011;65104;52.994;6.552;2023-12-20T11:33:45;6.22;;;0.63;;
76296;SDS011;65104;52.994;6.552;2023-12-20T11:36:18;7.07;;;0.70;;
76296;SDS011;65104;52.994;6.552;2023-12-20T11:38:56;4.80;;;0.93;;
76296;SDS011;65104;52.994;6.552;2023-12-20T11:41:25;1.65;;;0.52;;
76296;SDS011;65104;52.994;6.552;2023-12-20T11:43:55;2.42;;;1.05;;
76296;SDS011;65104;52.994;6.552;2023-12-20T11:46:21;6.60;;;0.90;;
76296;SDS011;65104;52.994;6.552;2023-12-20T11:48:47;2.90;;;0.65;;
76296;SDS011;65104;52.994;6.552;2023-12-20T11:51:13;1.70;;;0.85;;
76296;SDS011;65104;52.994;6.552;2023-12-20T11:53:39;3.47;;;0.73;;
76296;SDS011;65104;52.994;6.552;2023-12-20T11:56:06;2.55;;;1.00;;
76296;SDS011;65104;52.994;6.552;2023-12-20T11:58:32;4.53;;;0.73;;
76296;SDS011;65104;52.994;6.552;2023-12-20T12:00:58;5.90;;;0.80;;
76296;SDS011;65104;52.994;6.552;2023-12-20T12:03:24;5.68;;;1.20;;
76296;SDS011;65104;52.994;6.552;2023-12-20T12:05:49;3.83;;;1.17;;
76296;SDS011;65104;52.994;6.552;2023-12-20T12:08:15;5.60;;;0.65;;
76296;SDS011;65104;52.994;6.552;2023-12-20T12:10:42;2.22;;;0.50;;
76296;SDS011;65104;52.994;6.552;2023-12-20T12:13:07;1.33;;;0.82;;
76296;SDS011;65104;52.994;6.552;2023-12-20T12:15:33;3.92;;;0.88;;
76296;SDS011;65104;52.994;6.552;2023-12-20T12:17:58;5.30;;;1.10;;
76296;SDS011;65104;52.994;6.552;2023-12-20T12:20:24;3.25;;;1.08;;
76296;SDS011;65104;52.994;6.552;2023-12-20T12:25:29;4.18;;;0.88;;
76296;SDS011;65104;52.994;6.552;2023-12-20T12:27:56;2.17;;;0.63;;
76296;SDS011;65104;52.994;6.552;2023-12-20T12:30:21;5.35;;;0.82;;
76296;SDS011;65104;52.994;6.552;2023-12-20T12:32:47;4.90;;;1.13;;
76296;SDS011;65104;52.994;6.552;2023-12-20T12:35:13;10.60;;;0.80;;
76296;SDS011;65104;52.994;6.552;2023-12-20T12:37:39;3.55;;;1.15;;
76296;SDS011;65104;52.994;6.552;2023-12-20T12:40:10;5.00;;;0.73;;
76296;SDS011;65104;52.994;6.552;2023-12-20T12:42:39;2.90;;;0.93;;
76296;SDS011;65104;52.994;6.552;2023-12-20T12:45:05;2.95;;;1.08;;
76296;SDS011;65104;52.994;6.552;2023-12-20T12:47:31;4.45;;;1.00;;
76296;SDS011;65104;52.994;6.552;2023-12-20T12:49:57;7.43;;;1.33;;
76296;SDS011;65104;52.994;6.552;2023-12-20T12:52:23;2.78;;;0.80;;
76296;SDS011;65104;52.994;6.552;2023-12-20T12:54:48;2.90;;;0.85;;
76296;SDS011;65104;52.994;6.552;2023-12-20T12:57:14;3.83;;;0.93;;
76296;SDS011;65104;52.994;6.552;2023-12-20T12:59:41;4.63;;;0.60;;
76296;SDS011;65104;52.994;6.552;2023-12-20T13:02:07;5.22;;;1.02;;
76296;SDS011;65104;52.994;6.552;2023-12-20T13:04:33;5.57;;;0.90;;
76296;SDS011;65104;52.994;6.552;2023-12-20T13:06:58;7.20;;;1.30;;
76296;SDS011;65104;52.994;6.552;2023-12-20T13:09:24;2.85;;;0.82;;
76296;SDS011;65104;52.994;6.552;2023-12-20T13:11:49;5.03;;;0.73;;
76296;SDS011;65104;52.994;6.552;2023-12-20T13:14:14;1.98;;;0.93;;
76296;SDS011;65104;52.994;6.552;2023-12-20T13:16:41;3.78;;;1.60;;
76296;SDS011;65104;52.994;6.552;2023-12-20T13:19:07;2.17;;;0.85;;
76296;SDS011;65104;52.994;6.552;2023-12-20T13:21:33;1.08;;;0.55;;
76296;SDS011;65104;52.994;6.552;2023-12-20T13:23:58;5.43;;;1.00;;
76296;SDS011;65104;52.994;6.552;2023-12-20T13:26:24;4.45;;;0.85;;
76296;SDS011;65104;52.994;6.552;2023-12-20T13:28:49;2.10;;;1.27;;
76296;SDS011;65104;52.994;6.552;2023-12-20T13:31:15;10.63;;;0.90;;
76296;SDS011;65104;52.994;6.552;2023-12-20T13:33:40;3.60;;;0.70;;
76296;SDS011;65104;52.994;6.552;2023-12-20T13:36:06;2.30;;;0.90;;
76296;SDS011;65104;52.994;6.552;2023-12-20T13:38:31;0.80;;;0.80;;
76296;SDS011;65104;52.994;6.552;2023-12-20T13:40:57;3.60;;;0.90;;
76296;SDS011;65104;52.994;6.552;2023-12-20T13:43:23;3.63;;;1.25;;
76296;SDS011;65104;52.994;6.552;2023-12-20T13:45:49;3.95;;;0.95;;
76296;SDS011;65104;52.994;6.552;2023-12-20T13:48:15;5.57;;;1.00;;
76296;SDS011;65104;52.994;6.552;2023-12-20T13:50:40;3.03;;;0.57;;
76296;SDS011;65104;52.994;6.552;2023-12-20T13:53:06;2.70;;;0.73;;
76296;SDS011;65104;52.994;6.552;2023-12-20T13:55:32;4.88;;;1.20;;
76296;SDS011;65104;52.994;6.552;2023-12-20T13:57:57;2.08;;;1.10;;
76296;SDS011;65104;52.994;6.552;2023-12-20T14:00:22;2.45;;;0.88;;
76296;SDS011;65104;52.994;6.552;2023-12-20T14:02:48;4.55;;;0.65;;
76296;SDS011;65104;52.994;6.552;2023-12-20T14:05:14;4.22;;;1.25;;
76296;SDS011;65104;52.994;6.552;2023-12-20T14:07:42;4.88;;;1.20;;
76296;SDS011;65104;52.994;6.552;2023-12-20T14:10:11;3.17;;;0.70;;
76296;SDS011;65104;52.994;6.552;2023-12-20T14:12:38;4.35;;;0.75;;
76296;SDS011;65104;52.994;6.552;2023-12-20T14:15:04;1.92;;;1.02;;
76296;SDS011;65104;52.994;6.552;2023-12-20T14:17:34;1.42;;;0.70;;
76296;SDS011;65104;52.994;6.552;2023-12-20T14:19:59;3.05;;;0.73;;
76296;SDS011;65104;52.994;6.552;2023-12-20T14:22:25;2.63;;;0.55;;
76296;SDS011;65104;52.994;6.552;2023-12-20T14:24:50;1.17;;;0.40;;
76296;SDS011;65104;52.994;6.552;2023-12-20T14:27:16;2.95;;;0.75;;
76296;SDS011;65104;52.994;6.552;2023-12-20T14:29:41;0.40;;;0.40;;
76296;SDS011;65104;52.994;6.552;2023-12-20T14:32:07;3.03;;;0.82;;
76296;SDS011;65104;52.994;6.552;2023-12-20T14:34:32;7.40;;;0.93;;
76296;SDS011;65104;52.994;6.552;2023-12-20T14:36:57;1.42;;;0.63;;
76296;SDS011;65104;52.994;6.552;2023-12-20T14:39:23;7.28;;;1.25;;
76296;SDS011;65104;52.994;6.552;2023-12-20T14:41:48;5.93;;;0.88;;
76296;SDS011;65104;52.994;6.552;2023-12-20T14:44:14;3.22;;;1.08;;
76296;SDS011;65104;52.994;6.552;2023-12-20T14:46:39;3.30;;;0.70;;